createdAt,value
2018-12-31T00:01:49.503Z,69.70
2018-12-31T00:04:42.993Z,70.00
2018-12-31T00:07:36.858Z,69.80
2018-12-31T00:10:29.868Z,69.90
2018-12-31T00:13:23.283Z,69.80
2018-12-31T00:16:16.870Z,69.90
2018-12-31T00:19:10.502Z,69.80
2018-12-31T00:22:03.969Z,69.90
2018-12-31T00:24:57.018Z,69.90
2018-12-31T00:27:50.088Z,69.90
2018-12-31T00:30:43.691Z,69.70
2018-12-31T00:33:44.627Z,69.70
2018-12-31T00:36:38.161Z,69.00
2018-12-31T00:39:31.420Z,69.60
2018-12-31T00:42:25.443Z,69.70
2018-12-31T00:45:19.254Z,69.50
2018-12-31T00:48:12.417Z,69.50
2018-12-31T00:51:05.753Z,69.40
2018-12-31T00:53:58.860Z,69.30
2018-12-31T00:56:55.781Z,69.30
2018-12-31T00:59:49.449Z,69.30
2018-12-31T01:02:42.363Z,69.30
2018-12-31T01:05:36.028Z,69.30
2018-12-31T01:08:29.713Z,69.50
2018-12-31T01:11:23.432Z,69.60
2018-12-31T01:14:16.569Z,69.80
2018-12-31T01:17:09.909Z,69.60
2018-12-31T01:20:03.289Z,69.60
2018-12-31T01:22:56.968Z,69.70
2018-12-31T01:25:50.349Z,69.50
2018-12-31T01:28:43.357Z,69.60
2018-12-31T01:31:37.011Z,69.60
2018-12-31T01:34:29.855Z,69.60
2018-12-31T01:37:22.944Z,69.60
2018-12-31T01:40:16.478Z,69.70
2018-12-31T01:43:10.515Z,69.60
2018-12-31T01:46:03.535Z,69.60
2018-12-31T01:48:56.784Z,69.60
2018-12-31T01:51:49.614Z,69.60
2018-12-31T01:54:43.646Z,69.70
2018-12-31T01:57:37.150Z,69.80
2018-12-31T02:00:31.655Z,69.30
2018-12-31T02:03:28.315Z,69.60
2018-12-31T02:06:21.975Z,69.60
2018-12-31T02:09:15.336Z,69.60
2018-12-31T02:12:08.649Z,69.20
2018-12-31T02:15:01.756Z,69.80
2018-12-31T02:17:55.214Z,69.60
2018-12-31T02:20:48.365Z,70.10
2018-12-31T02:23:49.451Z,69.80
2018-12-31T02:26:37.964Z,69.50
2018-12-31T02:29:31.391Z,70.00
2018-12-31T02:32:24.699Z,69.50
2018-12-31T02:35:17.803Z,69.60
2018-12-31T02:38:18.622Z,70.20
2018-12-31T02:41:12.026Z,69.30
2018-12-31T02:44:05.351Z,69.20
2018-12-31T02:47:01.031Z,69.50
2018-12-31T02:49:53.364Z,69.20
2018-12-31T02:52:46.648Z,69.20
2018-12-31T02:55:39.723Z,70.40
2018-12-31T02:58:32.605Z,70.50
2018-12-31T03:01:25.611Z,71.00
2018-12-31T03:04:18.683Z,70.90
2018-12-31T03:07:11.890Z,70.90
2018-12-31T03:10:05.644Z,70.30
2018-12-31T03:12:59.015Z,70.00
2018-12-31T03:15:52.280Z,70.00
2018-12-31T03:18:45.584Z,70.00
2018-12-31T03:21:39.014Z,69.80
2018-12-31T03:24:32.561Z,70.70
2018-12-31T03:27:28.275Z,70.80
2018-12-31T03:30:21.242Z,70.70
2018-12-31T03:33:14.447Z,71.10
2018-12-31T03:36:07.502Z,71.40
2018-12-31T03:39:00.429Z,70.30
2018-12-31T03:41:55.074Z,70.60
2018-12-31T03:44:48.395Z,70.90
2018-12-31T03:47:41.884Z,71.20
2018-12-31T03:50:34.961Z,70.30
2018-12-31T03:53:28.084Z,70.70
2018-12-31T03:56:20.989Z,71.40
2018-12-31T03:59:16.946Z,70.60
2018-12-31T04:02:08.000Z,70.70
2018-12-31T04:05:01.152Z,70.50
2018-12-31T04:07:54.025Z,70.70
2018-12-31T04:10:47.615Z,70.40
2018-12-31T04:13:42.472Z,70.30
2018-12-31T04:16:35.432Z,71.40
2018-12-31T04:19:28.307Z,71.40
2018-12-31T04:22:21.253Z,71.30
2018-12-31T04:25:14.297Z,71.10
2018-12-31T04:28:07.108Z,71.20
2018-12-31T04:31:01.408Z,70.60
2018-12-31T04:33:54.760Z,71.50
2018-12-31T04:36:48.323Z,70.60
2018-12-31T04:39:41.473Z,71.20
2018-12-31T04:42:34.422Z,71.50
2018-12-31T04:45:28.906Z,71.00
2018-12-31T04:48:22.305Z,71.10
2018-12-31T04:51:15.419Z,70.50
2018-12-31T04:54:08.687Z,71.50
2018-12-31T04:57:02.417Z,70.60
2018-12-31T04:59:55.769Z,72.00
2018-12-31T05:02:49.282Z,71.60
2018-12-31T05:05:42.987Z,71.10
2018-12-31T05:08:36.600Z,70.90
2018-12-31T05:11:29.757Z,70.30
2018-12-31T05:14:23.010Z,69.30
2018-12-31T05:17:16.384Z,70.40
2018-12-31T05:20:10.513Z,70.70
2018-12-31T05:23:05.382Z,70.00
2018-12-31T05:26:00.597Z,68.90
2018-12-31T05:28:55.848Z,70.90
2018-12-31T05:31:49.108Z,71.40
2018-12-31T05:34:41.901Z,71.20
2018-12-31T05:37:34.935Z,70.50
2018-12-31T05:40:27.818Z,68.00
2018-12-31T05:43:27.989Z,69.10
2018-12-31T05:46:22.808Z,70.00
2018-12-31T05:49:20.607Z,70.00
2018-12-31T05:52:13.652Z,70.20
2018-12-31T05:55:14.331Z,69.90
2018-12-31T05:58:00.478Z,70.00
2018-12-31T06:00:54.068Z,70.20
2018-12-31T06:03:47.298Z,70.10
2018-12-31T06:06:40.431Z,70.30
2018-12-31T06:09:33.451Z,70.40
2018-12-31T06:12:26.617Z,70.80
2018-12-31T06:15:19.909Z,70.80
2018-12-31T06:18:12.843Z,70.80
2018-12-31T06:21:08.007Z,70.70
2018-12-31T06:24:01.235Z,71.00
2018-12-31T06:26:57.207Z,71.20
2018-12-31T06:29:52.711Z,71.10
2018-12-31T06:32:59.463Z,71.10
2018-12-31T06:35:53.643Z,71.30
2018-12-31T06:38:48.211Z,71.20
2018-12-31T06:41:51.908Z,71.10
2018-12-31T06:44:45.317Z,71.30
2018-12-31T06:47:38.529Z,71.20
2018-12-31T06:50:33.806Z,71.00
2018-12-31T06:53:28.491Z,70.70
2018-12-31T06:56:23.843Z,70.00
2018-12-31T06:59:19.261Z,69.60
2018-12-31T07:02:13.310Z,69.40
2018-12-31T07:05:11.010Z,69.20
2018-12-31T07:08:04.572Z,68.80
2018-12-31T07:10:57.929Z,68.10
2018-12-31T07:13:57.791Z,67.80
2018-12-31T07:16:51.121Z,67.60
2018-12-31T07:19:45.251Z,67.60
2018-12-31T07:22:40.755Z,67.40
2018-12-31T07:25:37.385Z,66.30
2018-12-31T07:28:31.430Z,65.30
2018-12-31T07:31:25.909Z,65.10
2018-12-31T07:34:20.313Z,65.00
2018-12-31T07:37:16.729Z,65.40
2018-12-31T07:40:13.122Z,65.10
2018-12-31T07:43:09.752Z,66.20
2018-12-31T07:46:01.014Z,65.40
2018-12-31T07:48:54.629Z,64.60
2018-12-31T07:51:47.840Z,65.50
2018-12-31T07:54:41.122Z,64.70
2018-12-31T07:57:34.787Z,64.60
2018-12-31T08:00:27.847Z,64.20
2018-12-31T08:03:21.073Z,63.90
2018-12-31T08:06:14.784Z,63.20
2018-12-31T08:09:08.832Z,62.70
2018-12-31T08:12:02.469Z,62.70
2018-12-31T08:14:56.087Z,61.90
2018-12-31T08:17:49.090Z,61.80
2018-12-31T08:20:41.971Z,61.90
2018-12-31T08:23:35.743Z,61.60
2018-12-31T08:26:29.317Z,60.90
2018-12-31T08:29:22.482Z,61.30
2018-12-31T08:32:16.119Z,61.90
2018-12-31T08:35:09.230Z,62.30
2018-12-31T08:38:02.040Z,62.50
2018-12-31T08:40:56.098Z,62.40
2018-12-31T08:43:50.157Z,62.00
2018-12-31T08:46:43.428Z,63.10
2018-12-31T08:49:40.721Z,62.70
2018-12-31T08:52:34.576Z,62.60
2018-12-31T08:55:27.738Z,61.70
2018-12-31T08:58:20.759Z,61.10
2018-12-31T09:01:14.101Z,60.90
2018-12-31T09:04:07.619Z,61.60
2018-12-31T09:07:00.767Z,61.90
2018-12-31T09:09:55.942Z,61.90
2018-12-31T09:12:51.868Z,61.90
2018-12-31T09:15:45.168Z,62.40
2018-12-31T09:18:39.238Z,62.20
2018-12-31T09:21:34.477Z,62.50
2018-12-31T09:24:29.007Z,62.60
2018-12-31T09:27:23.576Z,62.70
2018-12-31T09:30:18.197Z,62.50
2018-12-31T09:33:12.212Z,62.10
2018-12-31T09:36:06.298Z,61.90
2018-12-31T09:39:01.964Z,61.90
2018-12-31T09:41:57.713Z,61.90
2018-12-31T09:44:53.765Z,61.70
2018-12-31T09:47:50.002Z,61.80
2018-12-31T09:50:47.300Z,62.10
2018-12-31T09:53:43.465Z,62.50
2018-12-31T09:56:40.646Z,62.70
2018-12-31T09:59:33.563Z,62.90
2018-12-31T10:02:29.292Z,63.40
2018-12-31T10:05:23.015Z,64.10
2018-12-31T10:08:21.167Z,64.50
2018-12-31T10:11:22.835Z,65.00
2018-12-31T10:14:16.985Z,65.40
2018-12-31T10:17:11.392Z,65.80
2018-12-31T10:20:09.226Z,66.10
2018-12-31T10:23:04.017Z,66.30
2018-12-31T10:25:59.451Z,66.60
2018-12-31T10:28:53.379Z,66.90
2018-12-31T10:31:47.903Z,67.20
2018-12-31T10:34:41.012Z,67.50
2018-12-31T10:37:35.398Z,67.60
2018-12-31T10:40:28.852Z,67.90
2018-12-31T10:43:22.258Z,68.20
2018-12-31T10:46:16.119Z,68.40
2018-12-31T10:49:09.327Z,68.80
2018-12-31T10:52:02.934Z,69.00
2018-12-31T10:54:56.698Z,69.40
2018-12-31T10:57:50.368Z,69.80
2018-12-31T11:00:43.141Z,69.90
2018-12-31T11:03:36.417Z,70.20
2018-12-31T11:06:29.943Z,70.40
2018-12-31T11:09:23.232Z,70.50
2018-12-31T11:12:16.128Z,70.50
2018-12-31T11:15:11.090Z,70.60
2018-12-31T11:18:08.376Z,70.60
2018-12-31T11:21:01.821Z,70.70
2018-12-31T11:23:54.951Z,70.80
2018-12-31T11:26:47.859Z,70.80
2018-12-31T11:29:41.326Z,70.90
2018-12-31T11:32:36.061Z,71.00
2018-12-31T11:35:29.852Z,71.10
2018-12-31T11:38:24.366Z,71.10
2018-12-31T11:41:25.316Z,71.20
2018-12-31T11:44:18.872Z,71.20
2018-12-31T11:47:12.359Z,71.30
2018-12-31T11:50:05.472Z,70.90
2018-12-31T11:53:01.754Z,70.90
2018-12-31T11:55:53.260Z,70.90
2018-12-31T11:58:46.700Z,71.00
2018-12-31T12:01:42.462Z,71.00
2018-12-31T12:04:36.101Z,70.90
2018-12-31T12:07:29.172Z,70.90
2018-12-31T12:10:25.378Z,71.00
2018-12-31T12:13:18.707Z,71.00
2018-12-31T12:16:11.991Z,71.00
2018-12-31T12:19:06.182Z,71.10
2018-12-31T12:21:59.616Z,71.00
2018-12-31T12:24:58.794Z,71.10
2018-12-31T12:27:52.760Z,71.10
2018-12-31T12:30:45.832Z,71.20
2018-12-31T12:33:38.692Z,71.20
2018-12-31T12:36:32.035Z,71.40
2018-12-31T12:39:25.615Z,71.30
2018-12-31T12:42:22.995Z,71.20
2018-12-31T12:45:17.476Z,71.40
2018-12-31T12:48:19.576Z,71.50
2018-12-31T12:51:13.134Z,71.50
2018-12-31T12:54:06.816Z,71.60
2018-12-31T12:57:00.368Z,71.70
2018-12-31T12:59:53.851Z,71.80
2018-12-31T13:02:46.626Z,71.80
2018-12-31T13:05:40.070Z,71.90
2018-12-31T13:08:33.217Z,72.00
2018-12-31T13:11:27.912Z,72.00
2018-12-31T13:14:20.976Z,72.10
2018-12-31T13:17:15.142Z,72.10
2018-12-31T13:20:08.575Z,72.20
2018-12-31T13:23:02.035Z,72.30
2018-12-31T13:25:54.959Z,72.30
2018-12-31T13:28:51.333Z,72.40
2018-12-31T13:31:45.749Z,72.50
2018-12-31T13:34:39.139Z,72.50
2018-12-31T13:37:32.368Z,72.60
2018-12-31T13:40:28.310Z,72.70
2018-12-31T13:43:21.779Z,72.80
2018-12-31T13:46:21.274Z,72.80
2018-12-31T13:49:14.024Z,72.90
2018-12-31T13:52:07.156Z,72.90
2018-12-31T13:55:00.164Z,73.10
2018-12-31T13:57:56.346Z,73.00
2018-12-31T14:00:50.326Z,73.10
2018-12-31T14:03:43.514Z,72.90
2018-12-31T14:06:37.788Z,72.80
2018-12-31T14:09:31.409Z,72.60
2018-12-31T14:12:24.396Z,72.80
2018-12-31T14:15:17.320Z,72.80
2018-12-31T14:18:10.420Z,72.90
2018-12-31T14:21:03.795Z,73.00
2018-12-31T14:23:58.502Z,73.10
2018-12-31T14:26:51.606Z,73.10
2018-12-31T14:29:44.797Z,73.20
2018-12-31T14:32:38.402Z,73.30
2018-12-31T14:35:35.696Z,73.40
2018-12-31T14:38:28.693Z,73.30
2018-12-31T14:41:22.259Z,73.30
2018-12-31T14:44:15.303Z,73.40
2018-12-31T14:47:08.420Z,73.60
2018-12-31T14:50:01.917Z,73.80
2018-12-31T14:52:55.285Z,73.70
2018-12-31T14:55:48.294Z,73.60
2018-12-31T14:58:41.337Z,73.60
2018-12-31T15:01:34.716Z,73.60
2018-12-31T15:04:29.316Z,73.50
2018-12-31T15:07:22.536Z,73.50
2018-12-31T15:10:15.412Z,73.40
2018-12-31T15:13:12.124Z,73.30
2018-12-31T15:16:06.314Z,73.10
2018-12-31T15:18:59.610Z,73.10
2018-12-31T15:21:52.735Z,73.00
2018-12-31T15:24:48.596Z,73.00
2018-12-31T15:27:41.848Z,72.80
2018-12-31T15:30:35.351Z,72.80
2018-12-31T15:33:28.315Z,72.80
2018-12-31T15:36:22.008Z,72.80
2018-12-31T15:39:15.988Z,73.00
2018-12-31T15:42:09.895Z,73.00
2018-12-31T15:45:03.480Z,72.90
2018-12-31T15:48:06.234Z,73.00
2018-12-31T15:50:59.561Z,73.00
2018-12-31T15:53:58.106Z,72.90
2018-12-31T15:56:51.299Z,73.10
2018-12-31T15:59:44.563Z,72.90
2018-12-31T16:02:38.915Z,72.80
2018-12-31T16:05:33.639Z,72.70
2018-12-31T16:08:26.811Z,72.70
2018-12-31T16:11:20.337Z,73.10
2018-12-31T16:14:16.829Z,73.70
2018-12-31T16:17:09.710Z,72.70
2018-12-31T16:20:04.727Z,72.80
2018-12-31T16:22:58.957Z,72.90
2018-12-31T16:25:51.942Z,72.80
2018-12-31T16:28:45.588Z,72.70
2018-12-31T16:31:38.959Z,72.70
2018-12-31T16:34:32.105Z,72.80
2018-12-31T16:37:25.508Z,72.90
2018-12-31T16:40:18.904Z,72.90
2018-12-31T16:43:12.866Z,73.00
2018-12-31T16:46:06.249Z,72.80
2018-12-31T16:48:59.563Z,72.90
2018-12-31T16:51:53.348Z,73.00
2018-12-31T16:54:46.305Z,72.80
2018-12-31T16:57:40.853Z,72.90
2018-12-31T17:00:34.495Z,72.80
2018-12-31T17:03:27.350Z,72.90
2018-12-31T17:06:20.794Z,72.90
2018-12-31T17:09:14.000Z,72.90
2018-12-31T17:12:07.107Z,72.90
2018-12-31T17:15:00.426Z,73.10
2018-12-31T17:17:53.321Z,73.00
2018-12-31T17:20:46.265Z,72.90
2018-12-31T17:23:41.239Z,72.80
2018-12-31T17:26:34.647Z,73.00
2018-12-31T17:29:27.768Z,72.80
2018-12-31T17:32:20.897Z,72.80
2018-12-31T17:35:14.371Z,72.90
2018-12-31T17:38:07.748Z,72.90
2018-12-31T17:41:02.451Z,73.00
2018-12-31T17:43:56.050Z,73.00
2018-12-31T17:46:49.341Z,72.90
2018-12-31T17:49:42.744Z,73.00
2018-12-31T17:52:36.825Z,72.80
2018-12-31T17:55:30.627Z,73.00
2018-12-31T17:58:23.861Z,72.90
2018-12-31T18:01:17.299Z,73.20
2018-12-31T18:04:14.904Z,73.00
2018-12-31T18:07:08.239Z,73.00
2018-12-31T18:10:04.416Z,73.20
2018-12-31T18:12:59.344Z,73.30
2018-12-31T18:15:52.482Z,73.20
2018-12-31T18:18:46.397Z,73.40
2018-12-31T18:21:40.122Z,73.20
2018-12-31T18:24:33.653Z,73.30
2018-12-31T18:27:30.093Z,73.20
2018-12-31T18:30:23.710Z,73.20
2018-12-31T18:33:19.679Z,73.20
2018-12-31T18:36:11.548Z,73.00
2018-12-31T18:39:07.300Z,72.90
2018-12-31T18:42:00.952Z,72.80
2018-12-31T18:44:54.376Z,72.70
2018-12-31T18:47:47.741Z,72.70
2018-12-31T18:50:44.041Z,72.60
2018-12-31T18:53:35.654Z,72.70
2018-12-31T18:56:33.868Z,72.90
2018-12-31T18:59:25.876Z,72.90
2018-12-31T19:02:19.349Z,72.90
2018-12-31T19:05:12.649Z,73.10
2018-12-31T19:08:06.466Z,73.00
2018-12-31T19:11:01.229Z,73.00
2018-12-31T19:13:56.046Z,73.10
2018-12-31T19:16:49.397Z,73.40
2018-12-31T19:19:43.911Z,73.10
2018-12-31T19:22:37.275Z,73.00
2018-12-31T19:25:30.422Z,73.00
2018-12-31T19:28:23.890Z,72.90
2018-12-31T19:31:17.199Z,72.90
2018-12-31T19:34:12.129Z,73.00
2018-12-31T19:37:04.231Z,72.90
2018-12-31T19:39:57.295Z,73.00
2018-12-31T19:42:50.818Z,72.90
2018-12-31T19:45:44.649Z,72.90
2018-12-31T19:48:40.815Z,73.00
2018-12-31T19:51:37.187Z,73.00
2018-12-31T19:54:30.298Z,73.10
2018-12-31T19:57:26.398Z,72.90
2018-12-31T20:00:19.250Z,72.90
2018-12-31T20:03:12.567Z,72.80
2018-12-31T20:06:05.530Z,72.70
2018-12-31T20:08:58.796Z,72.70
2018-12-31T20:11:52.367Z,73.00
2018-12-31T20:14:47.080Z,72.90
2018-12-31T20:17:40.003Z,72.80
2018-12-31T20:20:33.159Z,72.80
2018-12-31T20:23:34.071Z,72.80
2018-12-31T20:26:33.647Z,72.90
2018-12-31T20:29:26.338Z,72.80
2018-12-31T20:32:19.681Z,72.80
2018-12-31T20:35:12.769Z,72.70
2018-12-31T20:38:05.891Z,72.70
2018-12-31T20:41:01.714Z,72.70
2018-12-31T20:43:55.077Z,72.70
2018-12-31T20:46:48.352Z,72.90
2018-12-31T20:49:41.925Z,72.80
2018-12-31T20:52:36.110Z,72.80
2018-12-31T20:55:32.816Z,72.80
2018-12-31T20:58:26.347Z,72.60
2018-12-31T21:01:19.709Z,72.80
2018-12-31T21:04:12.649Z,72.80
2018-12-31T21:07:05.843Z,72.70
2018-12-31T21:09:59.303Z,72.70
2018-12-31T21:12:54.845Z,72.70
2018-12-31T21:15:47.916Z,72.50
2018-12-31T21:18:41.126Z,72.40
2018-12-31T21:21:34.476Z,72.50
2018-12-31T21:24:27.960Z,72.40
2018-12-31T21:27:21.025Z,72.40
2018-12-31T21:30:14.396Z,72.50
2018-12-31T21:33:09.435Z,72.60
2018-12-31T21:36:02.655Z,72.60
2018-12-31T21:39:01.561Z,72.50
2018-12-31T21:41:55.491Z,72.50
2018-12-31T21:44:48.537Z,72.60
2018-12-31T21:47:43.057Z,72.60
2018-12-31T21:50:36.518Z,72.50
2018-12-31T21:53:29.947Z,72.60
2018-12-31T21:56:25.721Z,72.60
2018-12-31T21:59:17.668Z,72.40
2018-12-31T22:02:19.981Z,72.50
2018-12-31T22:05:05.140Z,73.30
2018-12-31T22:07:58.156Z,72.60
2018-12-31T22:10:51.326Z,72.50
2018-12-31T22:13:44.578Z,72.40
2018-12-31T22:16:38.159Z,72.20
2018-12-31T22:19:31.512Z,72.30
2018-12-31T22:22:27.342Z,72.30
2018-12-31T22:25:20.733Z,72.20
2018-12-31T22:28:13.623Z,72.20
2018-12-31T22:31:06.402Z,72.00
2018-12-31T22:33:59.663Z,71.90
2018-12-31T22:36:55.160Z,71.80
2018-12-31T22:39:48.251Z,71.70
2018-12-31T22:42:44.695Z,71.60
2018-12-31T22:45:37.776Z,71.60
2018-12-31T22:48:30.705Z,71.60
2018-12-31T22:51:23.605Z,71.70
2018-12-31T22:54:17.875Z,71.60
2018-12-31T22:57:11.135Z,71.60
2018-12-31T23:00:04.130Z,71.50
2018-12-31T23:02:57.214Z,71.50
2018-12-31T23:05:50.332Z,71.40
2018-12-31T23:08:43.797Z,71.40
2018-12-31T23:11:38.143Z,71.30
2018-12-31T23:14:31.297Z,71.30
2018-12-31T23:17:24.407Z,71.40
2018-12-31T23:20:17.537Z,71.20
2018-12-31T23:23:10.855Z,71.30
2018-12-31T23:26:03.897Z,71.40
2018-12-31T23:28:56.885Z,71.50
2018-12-31T23:31:49.929Z,71.40
2018-12-31T23:34:43.597Z,71.30
2018-12-31T23:37:37.499Z,71.20
2018-12-31T23:40:30.476Z,71.20
2018-12-31T23:43:27.303Z,71.00
2018-12-31T23:46:21.437Z,71.10
2018-12-31T23:49:14.563Z,71.10
2018-12-31T23:52:08.035Z,71.00
2018-12-31T23:55:01.077Z,71.50
2018-12-31T23:57:54.210Z,70.80
